Pays
Station

 

Conditions  météo  pour  Pattani  -  Thaïlande    Thaïlande

  
26 °C
    
 
 

METAR pour Pattani :

VTSK 200100Z 21004KT 9999 FEW030 SCT080 26/21 Q1011

 

Voici le bulletin pour Pattani - Thaïlande.
 
Le bulletin a été fait il y a une heure et 4 minutes, à 01:00 UTC .
Le vent soufflait à la vitesse de 2.1 mètres par seconde de Sud/Sud-ouest (210°).
 
La température était de 26 °C, avec un point de rosée à 21 °C.
La température ressentie était de 28 °C.
 
La pression atmosphérique était de 1011 hPa.
L'humidité relative était de 74.0%.
 
Il y avait 1 à 2/8ème de nébulosité à une hauteur de 914 mètres et 3 à 4/8ème de nébulosité à une hauteur de 2438 mètres.
 
La visibilité globale était de supérieure à 10 kilomètres.
 

 
 
 

Pays :   A   B   C   D   E   F   G   H   I   J   K   L   M   N   O   P   Q   R   S   T   U   V   W   Y   Z

 

Partenaires :  Info Météo avec Met'info
Météo Marine avec MeteoMarine.net
Infos Site  |  Infos Légales  |  Crédits  |  Confidentialité
Contactez-nous  |  Ajouter aux favoris
© 2013-2018 METAR - Tous droits réservés